createdAt,value
2018-07-17T00:00:12.208Z,27.72
2018-07-17T00:01:12.252Z,27.77
2018-07-17T00:02:12.287Z,27.75
2018-07-17T00:03:12.269Z,27.70
2018-07-17T00:04:12.302Z,27.72
2018-07-17T00:05:12.318Z,27.72
2018-07-17T00:06:12.337Z,27.82
2018-07-17T00:07:12.378Z,27.64
2018-07-17T00:08:12.381Z,27.77
2018-07-17T00:09:12.414Z,27.71
2018-07-17T00:10:12.420Z,27.70
2018-07-17T00:11:12.409Z,27.70
2018-07-17T00:12:12.422Z,27.77
2018-07-17T00:13:12.487Z,27.80
2018-07-17T00:14:12.505Z,27.75
2018-07-17T00:15:12.525Z,27.75
2018-07-17T00:16:12.520Z,27.74
2018-07-17T00:17:12.548Z,27.72
2018-07-17T00:18:12.531Z,27.75
2018-07-17T00:19:12.597Z,27.71
2018-07-17T00:20:12.577Z,27.72
2018-07-17T00:21:12.618Z,27.77
2018-07-17T00:22:12.651Z,27.82
2018-07-17T00:23:12.622Z,27.85
2018-07-17T00:24:12.640Z,27.77
2018-07-17T00:25:12.691Z,27.82
2018-07-17T00:26:12.768Z,27.80
2018-07-17T00:27:12.718Z,27.80
2018-07-17T00:28:12.758Z,27.79
2018-07-17T00:29:12.761Z,27.86
2018-07-17T00:30:12.778Z,27.85
2018-07-17T00:31:12.813Z,27.86
2018-07-17T00:32:12.830Z,27.75
2018-07-17T00:33:12.833Z,27.77
2018-07-17T00:34:12.851Z,27.82
2018-07-17T00:35:12.836Z,27.82
2018-07-17T00:36:12.857Z,27.82
2018-07-17T00:37:12.922Z,27.75
2018-07-17T00:38:12.881Z,27.75
2018-07-17T00:39:12.944Z,27.80
2018-07-17T00:40:12.976Z,27.71
2018-07-17T00:41:12.974Z,27.75
2018-07-17T00:42:12.954Z,27.83
2018-07-17T00:43:13.008Z,27.80
2018-07-17T00:44:13.048Z,27.83
2018-07-17T00:45:13.068Z,27.85
2018-07-17T00:46:13.042Z,27.82
2018-07-17T00:47:13.106Z,27.82
2018-07-17T00:48:13.071Z,27.75
2018-07-17T00:49:13.097Z,27.71
2018-07-17T00:50:13.139Z,27.68
2018-07-17T00:51:13.153Z,27.68
2018-07-17T00:52:13.148Z,27.70
2018-07-17T00:53:13.212Z,27.79
2018-07-17T00:54:13.186Z,27.79
2018-07-17T00:55:13.203Z,27.77
2018-07-17T00:56:13.266Z,27.90
2018-07-17T00:57:13.284Z,27.89
2018-07-17T00:58:13.254Z,27.99
2018-07-17T00:59:13.279Z,28.05
2018-07-17T01:00:13.326Z,28.04
2018-07-17T01:01:13.366Z,28.07
2018-07-17T01:02:13.332Z,27.92
2018-07-17T01:03:13.350Z,28.04
2018-07-17T01:04:13.411Z,27.99
2018-07-17T01:05:13.430Z,28.04
2018-07-17T01:06:13.415Z,28.08
2018-07-17T01:07:13.451Z,28.26
2018-07-17T01:08:13.440Z,28.17
2018-07-17T01:09:13.504Z,28.09
2018-07-17T01:10:13.524Z,28.08
2018-07-17T01:11:13.528Z,27.92
2018-07-17T01:12:13.537Z,27.90
2018-07-17T01:13:13.582Z,27.93
2018-07-17T01:14:13.554Z,27.90
2018-07-17T01:15:13.570Z,27.89
2018-07-17T01:16:13.635Z,28.01
2018-07-17T01:17:13.652Z,28.01
2018-07-17T01:18:13.635Z,28.01
2018-07-17T01:19:13.643Z,27.95
2018-07-17T01:20:13.660Z,27.89
2018-07-17T01:21:13.677Z,27.93
2018-07-17T01:22:13.709Z,27.92
2018-07-17T01:23:13.747Z,27.90
2018-07-17T01:24:13.783Z,27.89
2018-07-17T01:25:13.771Z,27.87
2018-07-17T01:26:13.761Z,27.92
2018-07-17T01:27:13.838Z,27.95
2018-07-17T01:28:13.854Z,28.01
2018-07-17T01:29:13.874Z,27.98
2018-07-17T01:30:13.879Z,28.09
2018-07-17T01:31:13.864Z,27.98
2018-07-17T01:32:13.929Z,28.05
2018-07-17T01:33:13.947Z,28.02
2018-07-17T01:34:13.944Z,27.87
2018-07-17T01:35:13.947Z,27.87
2018-07-17T01:36:14.001Z,27.97
2018-07-17T01:37:14.003Z,27.90
2018-07-17T01:38:14.002Z,27.87
2018-07-17T01:39:14.011Z,28.01
2018-07-17T01:40:14.076Z,27.98
2018-07-17T01:41:14.081Z,27.93
2018-07-17T01:42:14.066Z,27.99
2018-07-17T01:43:14.134Z,28.05
2018-07-17T01:44:14.149Z,27.92
2018-07-17T01:45:14.163Z,27.99
2018-07-17T01:46:14.127Z,28.14
2018-07-17T01:47:14.190Z,28.09
2018-07-17T01:48:14.222Z,28.04
2018-07-17T01:49:14.205Z,28.01
2018-07-17T01:50:14.227Z,28.04
2018-07-17T01:51:14.262Z,28.02
2018-07-17T01:52:14.296Z,28.02
2018-07-17T01:53:14.315Z,27.99
2018-07-17T01:54:14.283Z,27.99
2018-07-17T01:55:14.305Z,28.05
2018-07-17T01:56:14.353Z,28.09
2018-07-17T01:57:14.388Z,28.26
2018-07-17T01:58:14.406Z,28.27
2018-07-17T01:59:14.380Z,28.30
2018-07-17T02:00:14.420Z,28.34
2018-07-17T02:01:14.463Z,28.32
2018-07-17T02:02:14.457Z,28.42
2018-07-17T02:03:14.476Z,28.39
2018-07-17T02:04:14.470Z,28.39
2018-07-17T02:05:14.545Z,28.39
2018-07-17T02:06:14.556Z,28.41
2018-07-17T02:07:14.527Z,28.39
2018-07-17T02:08:14.572Z,28.39
2018-07-17T02:09:14.552Z,28.39
2018-07-17T02:10:14.584Z,28.34
2018-07-17T02:11:14.649Z,28.32
2018-07-17T02:12:14.666Z,28.41
2018-07-17T02:13:14.635Z,28.56
2018-07-17T02:14:14.667Z,28.53
2018-07-17T02:15:14.724Z,28.45
2018-07-17T02:16:14.693Z,28.42
2018-07-17T02:17:14.712Z,28.44
2018-07-17T02:18:14.742Z,28.51
2018-07-17T02:19:14.797Z,28.64
2018-07-17T02:20:14.865Z,28.57
2018-07-17T02:21:14.810Z,28.72
2018-07-17T02:22:14.794Z,28.56
2018-07-17T02:23:14.872Z,28.57
2018-07-17T02:24:14.894Z,28.72
2018-07-17T02:25:14.893Z,28.75
2018-07-17T02:26:14.928Z,28.79
2018-07-17T02:27:14.901Z,28.83
2018-07-17T02:28:14.929Z,28.75
2018-07-17T02:29:14.940Z,28.73
2018-07-17T02:30:15.004Z,28.71
2018-07-17T02:31:14.964Z,28.73
2018-07-17T02:32:15.029Z,28.76
2018-07-17T02:33:15.059Z,28.76
2018-07-17T02:34:15.080Z,28.76
2018-07-17T02:35:15.051Z,28.76
2018-07-17T02:36:15.070Z,28.81
2018-07-17T02:37:15.116Z,28.75
2018-07-17T02:38:15.154Z,28.79
2018-07-17T02:39:15.195Z,28.79
2018-07-17T02:40:15.146Z,28.79
2018-07-17T02:41:15.165Z,28.85
2018-07-17T02:42:15.243Z,28.94
2018-07-17T02:43:15.258Z,28.97
2018-07-17T02:44:15.219Z,29.09
2018-07-17T02:45:15.266Z,29.17
2018-07-17T02:46:15.292Z,29.17
2018-07-17T02:47:15.280Z,29.14
2018-07-17T02:48:15.299Z,29.21
2018-07-17T02:49:15.304Z,29.26
2018-07-17T02:50:15.360Z,29.11
2018-07-17T02:51:15.357Z,29.21
2018-07-17T02:52:15.424Z,29.21
2018-07-17T02:53:15.391Z,29.23
2018-07-17T02:54:15.445Z,29.36
2018-07-17T02:55:15.443Z,29.29
2018-07-17T02:56:15.448Z,29.41
2018-07-17T02:57:15.501Z,29.47
2018-07-17T02:58:15.539Z,29.35
2018-07-17T02:59:15.557Z,29.42
2018-07-17T03:00:15.526Z,29.39
2018-07-17T03:01:15.581Z,29.46
2018-07-17T03:02:15.556Z,29.38
2018-07-17T03:03:15.580Z,29.41
2018-07-17T03:04:15.606Z,29.46
2018-07-17T03:05:15.672Z,29.35
2018-07-17T03:06:15.679Z,29.38
2018-07-17T03:07:15.665Z,29.48
2018-07-17T03:08:15.672Z,29.39
2018-07-17T03:09:15.749Z,29.42
2018-07-17T03:10:15.771Z,29.38
2018-07-17T03:11:15.753Z,29.33
2018-07-17T03:12:15.770Z,29.28
2018-07-17T03:13:15.782Z,29.36
2018-07-17T03:14:15.835Z,29.38
2018-07-17T03:15:15.868Z,29.38
2018-07-17T03:16:15.885Z,29.46
2018-07-17T03:17:15.885Z,29.58
2018-07-17T03:18:15.909Z,29.57
2018-07-17T03:19:15.954Z,29.48
2018-07-17T03:20:15.942Z,29.50
2018-07-17T03:21:15.968Z,29.50
2018-07-17T03:22:15.988Z,29.47
2018-07-17T03:23:15.985Z,29.57
2018-07-17T03:24:16.020Z,29.53
2018-07-17T03:25:16.068Z,29.51
2018-07-17T03:26:16.058Z,29.58
2018-07-17T03:27:16.054Z,29.55
2018-07-17T03:28:16.127Z,29.63
2018-07-17T03:29:16.139Z,29.51
2018-07-17T03:30:16.159Z,29.66
2018-07-17T03:31:16.156Z,29.62
2018-07-17T03:32:16.150Z,29.81
2018-07-17T03:33:16.199Z,29.84
2018-07-17T03:34:16.237Z,29.83
2018-07-17T03:35:16.210Z,29.85
2018-07-17T03:36:16.228Z,29.94
2018-07-17T03:37:16.277Z,29.90
2018-07-17T03:38:16.268Z,29.92
2018-07-17T03:39:16.286Z,29.90
2018-07-17T03:40:16.315Z,29.84
2018-07-17T03:41:16.371Z,29.90
2018-07-17T03:42:16.346Z,29.84
2018-07-17T03:43:16.365Z,29.99
2018-07-17T03:44:16.431Z,29.94
2018-07-17T03:45:16.430Z,29.85
2018-07-17T03:46:16.434Z,29.90
2018-07-17T03:47:16.490Z,29.87
2018-07-17T03:48:16.463Z,29.92
2018-07-17T03:49:16.483Z,29.87
2018-07-17T03:50:16.525Z,29.95
2018-07-17T03:51:16.569Z,30.03
2018-07-17T03:52:16.587Z,30.07
2018-07-17T03:53:16.560Z,29.99
2018-07-17T03:54:16.583Z,29.99
2018-07-17T03:55:16.677Z,29.95
2018-07-17T03:56:16.666Z,29.87
2018-07-17T03:57:16.685Z,29.88
2018-07-17T03:58:16.687Z,29.95
2018-07-17T03:59:16.706Z,29.87
2018-07-17T04:00:16.708Z,29.90
2018-07-17T04:01:16.749Z,29.90
2018-07-17T04:02:16.784Z,29.84
2018-07-17T04:03:16.755Z,29.81
2018-07-17T04:04:16.821Z,29.84
2018-07-17T04:05:16.843Z,29.88
2018-07-17T04:06:16.865Z,29.85
2018-07-17T04:07:16.873Z,29.84
2018-07-17T04:08:16.855Z,29.95
2018-07-17T04:09:16.928Z,29.94
2018-07-17T04:10:16.893Z,29.76
2018-07-17T04:11:16.937Z,29.79
2018-07-17T04:12:17.001Z,29.85
2018-07-17T04:13:17.006Z,29.79
2018-07-17T04:14:16.975Z,29.85
2018-07-17T04:15:17.019Z,29.92
2018-07-17T04:16:17.059Z,29.92
2018-07-17T04:17:17.033Z,30.03
2018-07-17T04:18:17.041Z,29.99
2018-07-17T04:19:17.118Z,30.02
2018-07-17T04:20:17.139Z,30.13
2018-07-17T04:21:17.140Z,30.16
2018-07-17T04:22:17.160Z,30.12
2018-07-17T04:23:17.151Z,30.00
2018-07-17T04:24:17.215Z,29.85
2018-07-17T04:25:17.218Z,29.90
2018-07-17T04:26:17.257Z,29.92
2018-07-17T04:27:17.230Z,29.99
2018-07-17T04:28:17.258Z,30.09
2018-07-17T04:29:17.269Z,30.02
2018-07-17T04:30:17.334Z,30.07
2018-07-17T04:31:17.355Z,30.21
2018-07-17T04:32:17.360Z,30.31
2018-07-17T04:33:17.398Z,30.44
2018-07-17T04:34:17.413Z,30.32
2018-07-17T04:35:17.445Z,30.39
2018-07-17T04:36:17.431Z,30.43
2018-07-17T04:37:17.475Z,30.52
2018-07-17T04:38:17.536Z,30.56
2018-07-17T04:39:17.463Z,30.65
2018-07-17T04:40:17.503Z,30.69
2018-07-17T04:41:17.535Z,30.78
2018-07-17T04:42:17.527Z,30.72
2018-07-17T04:43:17.597Z,30.63
2018-07-17T04:44:17.696Z,30.65
2018-07-17T04:45:17.587Z,30.65
2018-07-17T04:46:17.654Z,30.48
2018-07-17T04:47:17.651Z,30.54
2018-07-17T04:48:17.670Z,30.52
2018-07-17T04:49:17.681Z,30.63
2018-07-17T04:50:17.685Z,30.57
2018-07-17T04:51:17.708Z,30.52
2018-07-17T04:52:17.773Z,30.65
2018-07-17T04:53:17.794Z,30.60
2018-07-17T04:54:17.769Z,30.60
2018-07-17T04:55:17.776Z,30.59
2018-07-17T04:56:17.799Z,30.62
2018-07-17T04:57:17.878Z,30.62
2018-07-17T04:58:17.837Z,30.59
2018-07-17T04:59:17.857Z,30.57
2018-07-17T05:00:17.935Z,30.62
2018-07-17T05:01:17.906Z,30.62
2018-07-17T05:02:17.958Z,30.77
2018-07-17T05:03:17.979Z,30.75
2018-07-17T05:04:17.996Z,30.74
2018-07-17T05:05:18.039Z,30.84
2018-07-17T05:06:18.021Z,30.84
2018-07-17T05:07:18.037Z,30.77
2018-07-17T05:08:18.097Z,30.80
2018-07-17T05:09:18.071Z,30.93
2018-07-17T05:10:18.123Z,30.84
2018-07-17T05:11:18.099Z,31.00
2018-07-17T05:12:18.179Z,31.03
2018-07-17T05:13:18.201Z,31.00
2018-07-17T05:14:18.205Z,30.87
2018-07-17T05:15:18.196Z,30.85
2018-07-17T05:16:18.302Z,30.77
2018-07-17T05:17:18.243Z,30.82
2018-07-17T05:18:18.249Z,30.80
2018-07-17T05:19:18.299Z,30.74
2018-07-17T05:20:18.372Z,30.82
2018-07-17T05:21:18.359Z,30.89
2018-07-17T05:22:18.356Z,30.96
2018-07-17T05:23:18.376Z,30.89
2018-07-17T05:24:18.426Z,30.91
2018-07-17T05:25:18.440Z,30.94
2018-07-17T05:26:18.440Z,30.84
2018-07-17T05:27:18.462Z,30.88
2018-07-17T05:28:18.499Z,30.96
2018-07-17T05:29:18.470Z,30.89
2018-07-17T05:30:18.493Z,30.88
2018-07-17T05:31:18.573Z,30.89
2018-07-17T05:32:18.580Z,30.80
2018-07-17T05:33:18.600Z,30.85
2018-07-17T05:34:18.610Z,30.91
2018-07-17T05:35:18.748Z,30.97
2018-07-17T05:36:18.717Z,30.88
2018-07-17T05:37:18.684Z,30.91
2018-07-17T05:38:18.691Z,30.91
2018-07-17T05:39:18.665Z,30.81
2018-07-17T05:40:18.695Z,30.67
2018-07-17T05:41:18.762Z,30.50
2018-07-17T05:42:18.746Z,30.39
2018-07-17T05:43:18.757Z,30.37
2018-07-17T05:44:18.827Z,30.39
2018-07-17T05:45:18.843Z,30.43
2018-07-17T05:46:18.907Z,30.22
2018-07-17T05:47:18.864Z,29.99
2018-07-17T05:48:18.856Z,29.95
2018-07-17T05:49:18.927Z,29.85
2018-07-17T05:50:18.931Z,29.79
2018-07-17T05:51:18.922Z,29.62
2018-07-17T05:52:18.937Z,29.53
2018-07-17T05:53:19.003Z,29.42
2018-07-17T05:54:18.975Z,29.36
2018-07-17T05:55:19.024Z,29.29
2018-07-17T05:56:19.062Z,29.25
2018-07-17T05:57:19.035Z,29.13
2018-07-17T05:58:19.089Z,29.11
2018-07-17T05:59:19.076Z,29.10
2018-07-17T06:00:19.141Z,29.13
2018-07-17T06:01:19.148Z,29.20
2018-07-17T06:02:19.168Z,29.07
2018-07-17T06:03:19.153Z,29.32
2018-07-17T06:04:19.220Z,29.33
2018-07-17T06:05:19.203Z,29.25
2018-07-17T06:06:19.222Z,29.26
2018-07-17T06:07:19.279Z,29.48
2018-07-17T06:08:19.297Z,29.47
2018-07-17T06:09:19.317Z,29.48
2018-07-17T06:10:19.318Z,29.68
2018-07-17T06:11:19.321Z,29.69
2018-07-17T06:12:19.375Z,29.79
2018-07-17T06:13:19.396Z,29.90
2018-07-17T06:14:19.404Z,30.00
2018-07-17T06:15:19.412Z,30.06
2018-07-17T06:16:19.454Z,30.14
2018-07-17T06:17:19.476Z,30.12
2018-07-17T06:18:19.471Z,30.20
2018-07-17T06:19:19.491Z,30.22
2018-07-17T06:20:19.477Z,30.25
2018-07-17T06:21:19.553Z,30.31
2018-07-17T06:22:19.573Z,30.44
2018-07-17T06:23:19.574Z,30.39
2018-07-17T06:24:19.566Z,30.36
2018-07-17T06:25:19.634Z,30.34
2018-07-17T06:26:19.639Z,30.27
2018-07-17T06:27:19.628Z,30.22
2018-07-17T06:28:19.645Z,30.06
2018-07-17T06:29:19.676Z,30.16
2018-07-17T06:30:19.732Z,30.07
2018-07-17T06:31:19.734Z,30.06
2018-07-17T06:32:19.771Z,29.99
2018-07-17T06:33:19.774Z,29.91
2018-07-17T06:34:19.778Z,29.91
2018-07-17T06:35:19.785Z,29.91
2018-07-17T06:36:19.833Z,29.92
2018-07-17T06:37:19.870Z,29.85
2018-07-17T06:38:19.876Z,29.83
2018-07-17T06:39:19.852Z,29.79
2018-07-17T06:40:19.930Z,29.87
2018-07-17T06:41:19.935Z,29.79
2018-07-17T06:42:19.910Z,29.83
2018-07-17T06:43:19.930Z,29.78
2018-07-17T06:44:20.009Z,29.84
2018-07-17T06:45:20.027Z,29.81
2018-07-17T06:46:20.031Z,29.79
2018-07-17T06:47:20.051Z,29.85
2018-07-17T06:48:20.066Z,29.99
2018-07-17T06:49:20.070Z,30.02
2018-07-17T06:50:20.204Z,30.05
2018-07-17T06:51:20.101Z,30.14
2018-07-17T06:52:20.148Z,30.21
2018-07-17T06:53:20.185Z,30.29
2018-07-17T06:54:20.159Z,30.34
2018-07-17T06:55:20.168Z,30.44
2018-07-17T06:56:20.244Z,30.47
2018-07-17T06:57:20.261Z,30.48
2018-07-17T06:58:20.237Z,30.56
2018-07-17T06:59:20.285Z,30.44
2018-07-17T07:00:20.325Z,30.52
2018-07-17T07:01:20.297Z,30.51
2018-07-17T07:02:20.363Z,30.56
2018-07-17T07:03:20.385Z,30.40
2018-07-17T07:04:20.403Z,30.37
2018-07-17T07:05:20.474Z,30.39
2018-07-17T07:06:20.383Z,30.36
2018-07-17T07:07:20.464Z,30.29
2018-07-17T07:08:20.460Z,30.22
2018-07-17T07:09:20.468Z,30.22
2018-07-17T07:10:20.521Z,30.21
2018-07-17T07:11:20.600Z,30.00
2018-07-17T07:12:20.526Z,30.02
2018-07-17T07:13:20.584Z,29.90
2018-07-17T07:14:20.569Z,29.87
2018-07-17T07:15:20.577Z,29.83
2018-07-17T07:16:20.606Z,29.76
2018-07-17T07:17:20.662Z,29.66
2018-07-17T07:18:20.683Z,29.65
2018-07-17T07:19:20.642Z,29.54
2018-07-17T07:20:20.706Z,29.25
2018-07-17T07:21:20.695Z,29.32
2018-07-17T07:22:20.760Z,29.13
2018-07-17T07:23:20.751Z,28.98
2018-07-17T07:24:20.754Z,28.85
2018-07-17T07:25:20.797Z,28.78
2018-07-17T07:26:20.825Z,28.57
2018-07-17T07:27:20.857Z,28.63
2018-07-17T07:28:20.830Z,28.38
2018-07-17T07:29:20.858Z,28.39
2018-07-17T07:30:20.856Z,28.32
2018-07-17T07:31:20.937Z,28.38
2018-07-17T07:32:20.952Z,28.44
2018-07-17T07:33:20.971Z,28.46
2018-07-17T07:34:20.944Z,28.53
2018-07-17T07:35:21.011Z,28.58
2018-07-17T07:36:20.979Z,28.58
2018-07-17T07:37:21.093Z,28.57
2018-07-17T07:38:21.051Z,28.46
2018-07-17T07:39:21.036Z,28.44
2018-07-17T07:40:21.057Z,28.44
2018-07-17T07:41:21.064Z,28.46
2018-07-17T07:42:21.083Z,28.39
2018-07-17T07:43:21.148Z,28.41
2018-07-17T07:44:21.181Z,28.38
2018-07-17T07:45:21.202Z,28.39
2018-07-17T07:46:21.217Z,28.46
2018-07-17T07:47:21.219Z,28.56
2018-07-17T07:48:21.241Z,28.48
2018-07-17T07:49:21.323Z,28.54
2018-07-17T07:50:21.293Z,28.56
2018-07-17T07:51:21.292Z,28.61
2018-07-17T07:52:21.294Z,28.46
2018-07-17T07:53:21.328Z,28.64
2018-07-17T07:54:21.333Z,28.63
2018-07-17T07:55:21.350Z,28.63
2018-07-17T07:56:21.405Z,28.57
2018-07-17T07:57:21.424Z,28.54
2018-07-17T07:58:21.422Z,28.58
2018-07-17T07:59:21.440Z,28.61
2018-07-17T08:00:21.434Z,28.67
2018-07-17T08:01:21.485Z,28.78
2018-07-17T08:02:21.473Z,28.73
2018-07-17T08:03:21.537Z,28.82
2018-07-17T08:04:21.526Z,28.73
2018-07-17T08:05:21.562Z,28.73
2018-07-17T08:06:21.551Z,28.73
2018-07-17T08:07:21.568Z,28.81
2018-07-17T08:08:21.632Z,28.76
2018-07-17T08:09:21.656Z,28.78
2018-07-17T08:10:21.657Z,28.76
2018-07-17T08:11:21.666Z,28.66
2018-07-17T08:12:21.706Z,28.58
2018-07-17T08:13:21.717Z,28.57
2018-07-17T08:14:21.735Z,28.76
2018-07-17T08:15:21.718Z,28.73
2018-07-17T08:16:21.733Z,28.76
2018-07-17T08:17:21.789Z,28.81
2018-07-17T08:18:21.826Z,28.83
2018-07-17T08:19:21.805Z,28.82
2018-07-17T08:20:21.840Z,28.79
2018-07-17T08:21:21.880Z,28.73
2018-07-17T08:22:21.896Z,28.79
2018-07-17T08:23:21.873Z,28.78
2018-07-17T08:24:21.969Z,28.76
2018-07-17T08:25:21.952Z,28.73
2018-07-17T08:26:21.972Z,28.82
2018-07-17T08:27:21.950Z,28.82
2018-07-17T08:28:22.009Z,28.86
2018-07-17T08:29:22.011Z,28.81
2018-07-17T08:30:22.032Z,28.81
2018-07-17T08:31:22.027Z,28.81
2018-07-17T08:32:22.068Z,28.90
2018-07-17T08:33:22.088Z,28.94
2018-07-17T08:34:22.119Z,28.94
2018-07-17T08:35:22.098Z,28.93
2018-07-17T08:36:22.105Z,28.88
2018-07-17T08:37:22.166Z,28.95
2018-07-17T08:38:22.200Z,29.09
2018-07-17T08:39:22.218Z,29.09
2018-07-17T08:40:22.203Z,29.11
2018-07-17T08:41:22.242Z,29.11
2018-07-17T08:42:22.245Z,29.14
2018-07-17T08:43:22.278Z,29.21
2018-07-17T08:44:22.313Z,29.13
2018-07-17T08:45:22.322Z,29.23
2018-07-17T08:46:22.299Z,29.23
2018-07-17T08:47:22.315Z,29.25
2018-07-17T08:48:22.396Z,29.35
2018-07-17T08:49:22.354Z,29.36
2018-07-17T08:50:22.409Z,29.23
2018-07-17T08:51:22.404Z,29.29
2018-07-17T08:52:22.410Z,29.29
2018-07-17T08:53:22.442Z,29.16
2018-07-17T08:54:22.530Z,29.26
2018-07-17T08:55:22.525Z,29.20
2018-07-17T08:56:22.497Z,29.14
2018-07-17T08:57:22.519Z,29.20
2018-07-17T08:58:22.582Z,29.21
2018-07-17T08:59:22.554Z,29.21
2018-07-17T09:00:22.638Z,29.28
2018-07-17T09:01:22.640Z,29.35
2018-07-17T09:02:22.649Z,29.31
2018-07-17T09:03:22.635Z,29.36
2018-07-17T09:04:22.655Z,29.41
2018-07-17T09:05:22.672Z,29.39
2018-07-17T09:06:22.703Z,29.38
2018-07-17T09:07:22.760Z,29.38
2018-07-17T09:08:22.759Z,29.35
2018-07-17T09:09:22.752Z,29.35
2018-07-17T09:10:22.758Z,29.39
2018-07-17T09:11:22.834Z,29.42
2018-07-17T09:12:22.809Z,29.39
2018-07-17T09:13:22.816Z,29.46
2018-07-17T09:14:22.884Z,29.47
2018-07-17T09:15:22.912Z,29.47
2018-07-17T09:16:22.915Z,29.47
2018-07-17T09:17:22.905Z,29.53
2018-07-17T09:18:22.956Z,29.53
2018-07-17T09:19:22.990Z,29.53
2018-07-17T09:20:23.009Z,29.54
2018-07-17T09:21:23.031Z,29.63
2018-07-17T09:22:23.056Z,29.66
2018-07-17T09:23:23.052Z,29.75
2018-07-17T09:24:23.043Z,29.78
2018-07-17T09:25:23.106Z,29.76
2018-07-17T09:26:23.126Z,29.75
2018-07-17T09:27:23.190Z,29.79
2018-07-17T09:28:23.203Z,29.87
2018-07-17T09:29:23.133Z,29.83
2018-07-17T09:30:23.204Z,29.90
2018-07-17T09:31:23.179Z,29.92
2018-07-17T09:32:23.199Z,30.00
2018-07-17T09:33:23.262Z,29.99
2018-07-17T09:34:23.283Z,30.03
2018-07-17T09:35:23.257Z,30.06
2018-07-17T09:36:23.280Z,30.10
2018-07-17T09:37:23.297Z,30.16
2018-07-17T09:38:23.339Z,30.07
2018-07-17T09:39:23.379Z,30.07
2018-07-17T09:40:23.399Z,30.06
2018-07-17T09:41:23.371Z,30.18
2018-07-17T09:42:23.394Z,30.10
2018-07-17T09:43:23.413Z,30.13
2018-07-17T09:44:23.559Z,30.16
2018-07-17T09:45:23.450Z,30.14
2018-07-17T09:46:23.471Z,30.20
2018-07-17T09:47:23.537Z,30.21
2018-07-17T09:48:23.557Z,30.22
2018-07-17T09:49:23.524Z,30.16
2018-07-17T09:50:23.553Z,30.24
2018-07-17T09:51:23.572Z,30.02
2018-07-17T09:52:23.635Z,30.05
2018-07-17T09:53:23.655Z,30.07
2018-07-17T09:54:23.741Z,29.91
2018-07-17T09:55:23.647Z,29.94
2018-07-17T09:56:23.669Z,30.00
2018-07-17T09:57:23.733Z,30.05
2018-07-17T09:58:23.696Z,29.92
2018-07-17T09:59:23.762Z,29.87
2018-07-17T10:00:23.747Z,29.90
2018-07-17T10:01:23.812Z,29.79
2018-07-17T10:02:23.799Z,29.79
2018-07-17T10:03:23.830Z,29.85
2018-07-17T10:04:23.826Z,29.85
2018-07-17T10:05:23.891Z,29.83
2018-07-17T10:06:23.927Z,29.84
2018-07-17T10:07:23.915Z,29.92
2018-07-17T10:08:23.903Z,29.90
2018-07-17T10:09:24.033Z,29.92
2018-07-17T10:10:23.989Z,29.91
2018-07-17T10:11:23.965Z,29.97
2018-07-17T10:12:24.007Z,29.99
2018-07-17T10:13:24.048Z,29.92
2018-07-17T10:14:24.048Z,29.91
2018-07-17T10:15:24.037Z,29.97
2018-07-17T10:16:24.108Z,29.92
2018-07-17T10:17:24.127Z,30.05
2018-07-17T10:18:24.091Z,30.07
2018-07-17T10:19:24.126Z,30.20
2018-07-17T10:20:24.259Z,30.21
2018-07-17T10:21:24.206Z,30.06
2018-07-17T10:22:24.212Z,30.22
2018-07-17T10:23:24.205Z,30.25
2018-07-17T10:24:24.265Z,30.18
2018-07-17T10:25:24.230Z,30.22
2018-07-17T10:26:24.329Z,30.32
2018-07-17T10:27:24.327Z,30.39
2018-07-17T10:28:24.347Z,30.45
2018-07-17T10:29:24.318Z,30.44
2018-07-17T10:30:24.341Z,30.39
2018-07-17T10:31:24.404Z,30.36
2018-07-17T10:32:24.381Z,30.39
2018-07-17T10:33:24.409Z,30.39
2018-07-17T10:34:24.449Z,30.37
2018-07-17T10:35:24.484Z,30.43
2018-07-17T10:36:24.504Z,30.39
2018-07-17T10:37:24.469Z,30.52
2018-07-17T10:38:24.532Z,30.50
2018-07-17T10:39:24.564Z,30.59
2018-07-17T10:40:24.582Z,30.51
2018-07-17T10:41:24.557Z,30.52
2018-07-17T10:42:24.578Z,30.51
2018-07-17T10:43:24.646Z,30.45
2018-07-17T10:44:24.613Z,30.45
2018-07-17T10:45:24.638Z,30.44
2018-07-17T10:46:24.670Z,30.40
2018-07-17T10:47:24.721Z,30.34
2018-07-17T10:48:24.745Z,30.43
2018-07-17T10:49:24.743Z,30.39
2018-07-17T10:50:24.762Z,30.36
2018-07-17T10:51:24.758Z,30.39
2018-07-17T10:52:24.774Z,30.43
2018-07-17T10:53:24.801Z,30.40
2018-07-17T10:54:24.819Z,30.40
2018-07-17T10:55:24.882Z,30.39
2018-07-17T10:56:24.903Z,30.45
2018-07-17T10:57:24.888Z,30.43
2018-07-17T10:58:24.897Z,30.43
2018-07-17T10:59:24.965Z,30.43
2018-07-17T11:00:24.979Z,30.39
2018-07-17T11:01:24.957Z,30.43
2018-07-17T11:02:24.978Z,30.32
2018-07-17T11:03:25.030Z,30.37
2018-07-17T11:04:25.004Z,30.45
2018-07-17T11:05:25.024Z,30.39
2018-07-17T11:06:25.090Z,30.34
2018-07-17T11:07:25.120Z,30.10
2018-07-17T11:08:25.194Z,29.99
2018-07-17T11:09:25.131Z,29.94
2018-07-17T11:10:25.166Z,29.88
2018-07-17T11:11:25.183Z,29.91
2018-07-17T11:12:25.207Z,29.84
2018-07-17T11:13:25.228Z,29.68
2018-07-17T11:14:25.261Z,29.72
2018-07-17T11:15:25.246Z,29.65
2018-07-17T11:16:25.282Z,29.54
2018-07-17T11:17:25.318Z,29.50
2018-07-17T11:18:25.337Z,29.48
2018-07-17T11:19:25.309Z,29.35
2018-07-17T11:20:25.378Z,29.25
2018-07-17T11:21:25.395Z,29.16
2018-07-17T11:22:25.371Z,29.23
2018-07-17T11:23:25.401Z,29.19
2018-07-17T11:24:25.469Z,29.21
2018-07-17T11:25:25.430Z,29.19
2018-07-17T11:26:25.449Z,29.21
2018-07-17T11:27:25.468Z,29.17
2018-07-17T11:28:25.489Z,29.11
2018-07-17T11:29:25.552Z,29.07
2018-07-17T11:30:25.530Z,29.13
2018-07-17T11:31:25.548Z,29.07
2018-07-17T11:32:25.590Z,29.09
2018-07-17T11:33:25.614Z,29.11
2018-07-17T11:34:25.650Z,29.10
2018-07-17T11:35:25.648Z,29.05
2018-07-17T11:36:25.671Z,29.17
2018-07-17T11:37:25.698Z,29.11
2018-07-17T11:38:25.725Z,29.10
2018-07-17T11:39:25.744Z,29.16
2018-07-17T11:40:25.744Z,29.13
2018-07-17T11:41:25.763Z,29.17
2018-07-17T11:42:25.757Z,29.07
2018-07-17T11:43:25.822Z,29.05
2018-07-17T11:44:25.839Z,29.05
2018-07-17T11:45:25.824Z,29.16
2018-07-17T11:46:25.845Z,29.10
2018-07-17T11:47:25.852Z,29.11
2018-07-17T11:48:25.904Z,29.07
2018-07-17T11:49:25.881Z,28.93
2018-07-17T11:50:25.897Z,28.88
2018-07-17T11:51:25.973Z,28.91
2018-07-17T11:52:25.971Z,28.91
2018-07-17T11:53:26.176Z,28.93
2018-07-17T11:54:25.986Z,28.86
2018-07-17T11:55:25.998Z,28.86
2018-07-17T11:56:26.097Z,28.81
2018-07-17T11:57:26.096Z,28.79
2018-07-17T11:58:26.091Z,28.75
2018-07-17T11:59:26.302Z,28.78
2018-07-17T12:00:26.100Z,28.82
2018-07-17T12:01:26.149Z,28.78
2018-07-17T12:02:26.140Z,28.75
2018-07-17T12:03:26.202Z,28.75
2018-07-17T12:04:26.220Z,28.79
2018-07-17T12:05:26.262Z,28.81
2018-07-17T12:06:26.216Z,28.81
2018-07-17T12:07:26.238Z,28.81
2018-07-17T12:08:26.239Z,28.67
2018-07-17T12:09:26.293Z,28.61
2018-07-17T12:10:26.333Z,28.61
2018-07-17T12:11:26.297Z,28.61
2018-07-17T12:12:26.323Z,28.60
2018-07-17T12:13:26.377Z,28.73
2018-07-17T12:14:26.428Z,28.69
2018-07-17T12:15:26.432Z,28.71
2018-07-17T12:16:26.430Z,28.66
2018-07-17T12:17:26.415Z,28.76
2018-07-17T12:18:26.476Z,28.82
2018-07-17T12:19:26.500Z,28.72
2018-07-17T12:20:26.685Z,28.75
2018-07-17T12:21:26.530Z,28.75
2018-07-17T12:22:26.522Z,28.76
2018-07-17T12:23:26.602Z,28.76
2018-07-17T12:24:26.596Z,28.82
2018-07-17T12:25:26.616Z,28.76
2018-07-17T12:26:26.617Z,28.73
2018-07-17T12:27:26.637Z,28.58
2018-07-17T12:28:26.632Z,28.64
2018-07-17T12:29:26.692Z,28.57
2018-07-17T12:30:26.690Z,28.45
2018-07-17T12:31:26.709Z,28.48
2018-07-17T12:32:26.704Z,28.54
2018-07-17T12:33:26.710Z,28.49
2018-07-17T12:34:26.742Z,28.45
2018-07-17T12:35:26.762Z,28.56
2018-07-17T12:36:26.824Z,28.56
2018-07-17T12:37:26.827Z,28.56
2018-07-17T12:38:26.817Z,28.54
2018-07-17T12:39:26.881Z,28.63
2018-07-17T12:40:26.887Z,28.56
2018-07-17T12:41:26.872Z,28.57
2018-07-17T12:42:26.894Z,28.64
2018-07-17T12:43:26.959Z,28.61
2018-07-17T12:44:27.022Z,28.60
2018-07-17T12:45:26.951Z,28.58
2018-07-17T12:46:27.012Z,28.56
2018-07-17T12:47:27.019Z,28.57
2018-07-17T12:48:27.049Z,28.56
2018-07-17T12:49:27.055Z,28.45
2018-07-17T12:50:27.040Z,28.42
2018-07-17T12:51:27.063Z,28.41
2018-07-17T12:52:27.066Z,28.42